createdAt,value
2023-02-22T00:00:01.726Z,33
2023-02-22T00:05:02.244Z,26
2023-02-22T00:10:02.073Z,30
2023-02-22T00:15:01.891Z,32
2023-02-22T00:20:01.322Z,25
2023-02-22T00:25:02.102Z,27
2023-02-22T00:30:01.888Z,32
2023-02-22T00:35:02.240Z,35
2023-02-22T00:40:01.763Z,32
2023-02-22T00:45:02.176Z,36
2023-02-22T00:50:02.024Z,30
2023-02-22T00:55:01.427Z,30
2023-02-22T01:00:01.825Z,27
2023-02-22T01:05:02.350Z,25
2023-02-22T01:10:01.987Z,23
2023-02-22T01:15:01.366Z,30
2023-02-22T01:20:01.826Z,26
2023-02-22T01:25:02.331Z,29
2023-02-22T01:30:01.685Z,29
2023-02-22T01:35:02.214Z,25
2023-02-22T01:40:01.725Z,27
2023-02-22T01:45:02.079Z,27
2023-02-22T01:50:01.858Z,21
2023-02-22T01:55:02.211Z,21
2023-02-22T02:00:02.015Z,24
2023-02-22T02:05:01.552Z,21
2023-02-22T02:10:02.376Z,21
2023-02-22T02:15:02.176Z,25
2023-02-22T02:20:01.641Z,21
2023-02-22T02:25:02.439Z,21
2023-02-22T02:30:01.810Z,24
2023-02-22T02:35:02.284Z,25
2023-02-22T02:40:01.877Z,18
2023-02-22T02:45:02.277Z,22
2023-02-22T02:50:01.770Z,35
2023-02-22T02:55:02.557Z,26
2023-02-22T03:00:02.380Z,19
2023-02-22T03:05:02.190Z,24
2023-02-22T03:10:01.598Z,30
2023-02-22T03:15:02.102Z,30
2023-02-22T03:20:01.550Z,28
2023-02-22T03:25:02.341Z,24
2023-02-22T03:30:02.134Z,28
2023-02-22T03:35:01.485Z,25
2023-02-22T03:40:01.893Z,32
2023-02-22T03:45:02.693Z,33
2023-02-22T03:50:02.061Z,34
2023-02-22T03:55:01.439Z,33
2023-02-22T04:00:01.831Z,34
2023-02-22T04:05:02.604Z,27
2023-02-22T04:10:02.172Z,28
2023-02-22T04:15:01.975Z,35
2023-02-22T04:20:01.452Z,27
2023-02-22T04:25:02.246Z,28
2023-02-22T04:30:01.636Z,42
2023-02-22T04:35:02.141Z,23
2023-02-22T04:40:01.546Z,30
2023-02-22T04:45:01.908Z,27
2023-02-22T04:50:02.402Z,26
2023-02-22T04:55:01.780Z,21
2023-02-22T05:00:02.263Z,36
2023-02-22T05:05:01.689Z,26
2023-02-22T05:10:02.130Z,22
2023-02-22T05:15:01.525Z,21
2023-02-22T05:20:02.383Z,28
2023-02-22T05:25:01.888Z,23
2023-02-22T05:30:01.775Z,23
2023-02-22T05:35:02.559Z,24
2023-02-22T05:40:02.420Z,26
2023-02-22T05:45:01.920Z,21
2023-02-22T05:50:02.706Z,30
2023-02-22T05:55:02.081Z,28
2023-02-22T06:00:01.477Z,22
2023-02-22T06:05:02.279Z,18
2023-02-22T06:10:01.800Z,24
2023-02-22T06:15:02.229Z,17
2023-02-22T06:20:01.706Z,23
2023-02-22T06:25:02.489Z,22
2023-02-22T06:30:02.084Z,27
2023-02-22T06:35:01.482Z,20
2023-02-22T06:40:05.532Z,19
2023-02-22T06:45:02.754Z,19
2023-02-22T06:50:02.534Z,20
2023-02-22T06:55:01.903Z,15
2023-02-22T07:00:02.433Z,17
2023-02-22T07:05:01.903Z,23
2023-02-22T07:10:01.492Z,16
2023-02-22T07:15:01.879Z,18
2023-02-22T07:20:01.476Z,17
2023-02-22T07:25:02.290Z,13
2023-02-22T07:30:01.794Z,20
2023-02-22T07:35:02.274Z,17
2023-02-22T07:40:01.654Z,16
2023-02-22T07:45:02.438Z,16
2023-02-22T07:50:01.965Z,15
2023-02-22T07:55:01.445Z,20
2023-02-22T08:00:01.844Z,15
2023-02-22T08:05:02.339Z,16
2023-02-22T08:10:01.857Z,16
2023-02-22T08:15:02.254Z,15
2023-02-22T08:20:01.869Z,14
2023-02-22T08:25:02.352Z,15
2023-02-22T08:30:01.858Z,15
2023-02-22T08:35:02.221Z,12
2023-02-22T08:40:01.634Z,18
2023-02-22T08:45:02.017Z,11
2023-02-22T08:50:01.527Z,17
2023-02-22T08:55:02.077Z,17
2023-02-22T09:00:01.564Z,14
2023-02-22T09:05:01.930Z,14
2023-02-22T09:10:01.783Z,16
2023-02-22T09:15:02.432Z,15
2023-02-22T09:20:02.349Z,13
2023-02-22T09:25:11.231Z,17
2023-02-22T09:30:01.542Z,15
2023-02-22T09:35:01.929Z,15
2023-02-22T09:40:01.541Z,12
2023-02-22T09:45:02.405Z,15
2023-02-22T09:50:01.945Z,11
2023-02-22T09:55:01.485Z,14
2023-02-22T10:00:01.861Z,15
2023-02-22T10:05:02.302Z,15
2023-02-22T10:10:02.166Z,16
2023-02-22T10:15:01.709Z,29
2023-02-22T10:20:02.281Z,26
2023-02-22T10:25:01.773Z,22
2023-02-22T10:30:05.640Z,18
2023-02-22T10:35:01.534Z,19
2023-02-22T10:40:01.936Z,19
2023-02-22T10:45:02.488Z,23
2023-02-22T10:50:01.875Z,13
2023-02-22T10:55:14.529Z,20
2023-02-22T11:00:01.587Z,13
2023-02-22T11:05:02.164Z,16
2023-02-22T11:10:02.032Z,11
2023-02-22T11:15:01.443Z,15
2023-02-22T11:20:01.323Z,18
2023-02-22T11:25:01.885Z,15
2023-02-22T11:30:04.988Z,15
2023-02-22T11:35:09.007Z,13
2023-02-22T11:40:01.821Z,12
2023-02-22T11:45:02.634Z,16
2023-02-22T11:50:02.118Z,14
2023-02-22T11:55:01.629Z,13
2023-02-22T12:00:02.503Z,13
2023-02-22T12:05:02.341Z,12
2023-02-22T12:10:01.959Z,15
2023-02-22T12:15:01.483Z,19
2023-02-22T12:20:01.932Z,14
2023-02-22T12:25:09.685Z,15
2023-02-22T12:30:01.444Z,18
2023-02-22T12:35:02.229Z,15
2023-02-22T12:40:02.055Z,14
2023-02-22T12:45:01.555Z,15
2023-02-22T12:50:02.095Z,14
2023-02-22T12:55:01.587Z,16
2023-02-22T13:00:01.964Z,15
2023-02-22T13:05:01.800Z,13
2023-02-22T13:10:02.422Z,24
2023-02-22T13:15:02.230Z,15
2023-02-22T13:20:02.089Z,18
2023-02-22T13:25:01.450Z,18
2023-02-22T13:30:01.937Z,16
2023-02-22T13:35:02.731Z,17
2023-02-22T13:40:02.557Z,17
2023-02-22T13:45:02.371Z,19
2023-02-22T13:50:02.146Z,18
2023-02-22T13:55:01.661Z,18
2023-02-22T14:00:02.235Z,16
2023-02-22T14:05:01.818Z,19
2023-02-22T14:10:02.266Z,18
2023-02-22T14:15:01.824Z,17
2023-02-22T14:20:02.273Z,22
2023-02-22T14:25:01.792Z,19
2023-02-22T14:30:02.153Z,21
2023-02-22T14:35:01.939Z,22
2023-02-22T14:40:01.335Z,19
2023-02-22T14:45:01.722Z,21
2023-02-22T14:50:02.205Z,20
2023-02-22T14:55:01.603Z,38
2023-02-22T15:00:02.207Z,21
2023-02-22T15:05:01.800Z,54
2023-02-22T15:10:02.247Z,23
2023-02-22T15:15:01.642Z,23
2023-02-22T15:20:02.581Z,28
2023-02-22T15:25:02.008Z,19
2023-02-22T15:30:01.571Z,24
2023-02-22T15:35:02.083Z,27
2023-02-22T15:40:01.910Z,23
2023-02-22T15:45:02.723Z,23
2023-02-22T15:50:05.401Z,24
2023-02-22T15:55:02.256Z,26
2023-02-22T16:00:01.655Z,20
2023-02-22T16:05:02.024Z,31
2023-02-22T16:10:01.426Z,34
2023-02-22T16:15:01.795Z,33
2023-02-22T16:20:02.369Z,31
2023-02-22T16:25:01.849Z,34
2023-02-22T16:30:04.389Z,32
2023-02-22T16:35:02.432Z,28
2023-02-22T16:40:01.962Z,39
2023-02-22T16:45:01.491Z,38
2023-02-22T16:50:01.916Z,33
2023-02-22T16:55:02.312Z,34
2023-02-22T17:00:01.772Z,49
2023-02-22T17:05:02.566Z,36
2023-02-22T17:10:02.074Z,36
2023-02-22T17:15:01.609Z,47
2023-02-22T17:20:02.482Z,49
2023-02-22T17:25:02.301Z,49
2023-02-22T17:30:01.692Z,45
2023-02-22T17:35:02.513Z,45
2023-02-22T17:40:02.034Z,40
2023-02-22T17:45:01.588Z,52
2023-02-22T17:50:02.370Z,53
2023-02-22T17:55:01.858Z,41
2023-02-22T18:00:02.483Z,44
2023-02-22T18:05:02.278Z,46
2023-02-22T18:10:01.798Z,81
2023-02-22T18:15:02.289Z,43
2023-02-22T18:20:01.850Z,47
2023-02-22T18:25:02.353Z,44
2023-02-22T18:30:01.730Z,49
2023-02-22T18:35:02.272Z,43
2023-02-22T18:40:01.679Z,37
2023-02-22T18:45:02.501Z,40
2023-02-22T18:50:02.292Z,41
2023-02-22T18:55:01.805Z,39
2023-02-22T19:00:02.204Z,34
2023-02-22T19:05:01.674Z,50
2023-02-22T19:10:02.242Z,59
2023-02-22T19:15:01.664Z,43
2023-02-22T19:20:02.510Z,31
2023-02-22T19:25:02.354Z,27
2023-02-22T19:30:01.914Z,30
2023-02-22T19:35:02.468Z,25
2023-02-22T19:40:01.972Z,25
2023-02-22T19:45:01.788Z,30
2023-02-22T19:50:02.362Z,31
2023-02-22T19:55:01.744Z,32
2023-02-22T20:00:02.325Z,28
2023-02-22T20:05:01.806Z,25
2023-02-22T20:10:02.330Z,26
2023-02-22T20:15:01.847Z,26
2023-02-22T20:20:02.682Z,38
2023-02-22T20:25:02.490Z,27
2023-02-22T20:30:01.874Z,23
2023-02-22T20:35:02.366Z,27
2023-02-22T20:40:03.690Z,26
2023-02-22T20:45:01.381Z,25
2023-02-22T20:50:02.182Z,28
2023-02-22T20:55:01.984Z,27
2023-02-22T21:00:01.352Z,19
2023-02-22T21:05:02.066Z,20
2023-02-22T21:10:01.529Z,26
2023-02-22T21:15:02.327Z,21
2023-02-22T21:20:02.220Z,22
2023-02-22T21:25:01.750Z,19
2023-02-22T21:30:02.315Z,24
2023-02-22T21:35:02.119Z,22
2023-02-22T21:40:01.543Z,23
2023-02-22T21:45:02.053Z,30
2023-02-22T21:50:01.582Z,23
2023-02-22T21:55:02.384Z,21
2023-02-22T22:00:01.925Z,21
2023-02-22T22:05:02.506Z,22
2023-02-22T22:10:02.330Z,20
2023-02-22T22:15:02.158Z,20
2023-02-22T22:20:01.895Z,25
2023-02-22T22:25:02.388Z,20
2023-02-22T22:30:02.202Z,20
2023-02-22T22:35:01.993Z,21
2023-02-22T22:40:01.821Z,22
2023-02-22T22:45:02.217Z,24
2023-02-22T22:50:01.741Z,21
2023-02-22T22:55:02.119Z,27
2023-02-22T23:00:01.617Z,24
2023-02-22T23:05:01.724Z,19
2023-02-22T23:10:02.254Z,21
2023-02-22T23:15:01.666Z,19
2023-02-22T23:20:01.871Z,21
2023-02-22T23:25:02.252Z,18
2023-02-22T23:30:01.644Z,18
2023-02-22T23:35:02.015Z,26
2023-02-22T23:40:01.437Z,21
2023-02-22T23:45:01.840Z,26
2023-02-22T23:50:02.324Z,24
2023-02-22T23:55:01.682Z,28
